sensor_id;sensor_type;location;lat;lon;timestamp;temperature;humidity
3017;DHT22;1518;52.408;13.060;2022-11-15T00:01:00;16.30;95.00
3017;DHT22;1518;52.408;13.060;2022-11-15T00:03:52;16.30;95.00
3017;DHT22;1518;52.408;13.060;2022-11-15T00:06:40;16.30;95.00
3017;DHT22;1518;52.408;13.060;2022-11-15T00:09:28;16.30;95.00
3017;DHT22;1518;52.408;13.060;2022-11-15T00:12:16;16.30;95.00
3017;DHT22;1518;52.408;13.060;2022-11-15T00:15:04;16.20;95.10
3017;DHT22;1518;52.408;13.060;2022-11-15T00:17:53;16.20;95.20
3017;DHT22;1518;52.408;13.060;2022-11-15T00:20:42;16.20;95.10
3017;DHT22;1518;52.408;13.060;2022-11-15T00:23:30;16.20;95.00
3017;DHT22;1518;52.408;13.060;2022-11-15T00:26:19;16.20;94.90
3017;DHT22;1518;52.408;13.060;2022-11-15T00:29:07;16.30;95.00
3017;DHT22;1518;52.408;13.060;2022-11-15T00:31:55;16.20;95.00
3017;DHT22;1518;52.408;13.060;2022-11-15T00:34:43;16.20;95.00
3017;DHT22;1518;52.408;13.060;2022-11-15T00:37:32;16.20;95.00
3017;DHT22;1518;52.408;13.060;2022-11-15T00:40:20;16.20;95.00
3017;DHT22;1518;52.408;13.060;2022-11-15T00:43:08;16.20;95.00
3017;DHT22;1518;52.408;13.060;2022-11-15T00:45:57;16.20;95.10
3017;DHT22;1518;52.408;13.060;2022-11-15T00:48:45;16.10;95.10
3017;DHT22;1518;52.408;13.060;2022-11-15T00:51:33;16.20;95.10
3017;DHT22;1518;52.408;13.060;2022-11-15T00:54:22;16.10;95.00
3017;DHT22;1518;52.408;13.060;2022-11-15T00:57:10;16.10;94.80
3017;DHT22;1518;52.408;13.060;2022-11-15T00:59:58;16.10;95.00
3017;DHT22;1518;52.408;13.060;2022-11-15T01:02:46;16.10;95.00
3017;DHT22;1518;52.408;13.060;2022-11-15T01:05:37;16.10;95.00
3017;DHT22;1518;52.408;13.060;2022-11-15T01:08:25;16.10;94.80
3017;DHT22;1518;52.408;13.060;2022-11-15T01:11:14;16.10;94.90
3017;DHT22;1518;52.408;13.060;2022-11-15T01:14:02;16.10;95.00
3017;DHT22;1518;52.408;13.060;2022-11-15T01:16:50;16.10;95.00
3017;DHT22;1518;52.408;13.060;2022-11-15T01:19:38;16.10;95.00
3017;DHT22;1518;52.408;13.060;2022-11-15T01:22:26;16.20;94.90
3017;DHT22;1518;52.408;13.060;2022-11-15T01:25:14;16.10;94.80
3017;DHT22;1518;52.408;13.060;2022-11-15T01:28:04;16.10;95.00
3017;DHT22;1518;52.408;13.060;2022-11-15T01:30:52;16.10;95.00
3017;DHT22;1518;52.408;13.060;2022-11-15T01:33:40;16.10;95.10
3017;DHT22;1518;52.408;13.060;2022-11-15T01:36:28;16.50;95.20
3017;DHT22;1518;52.408;13.060;2022-11-15T01:39:16;16.00;94.90
3017;DHT22;1518;52.408;13.060;2022-11-15T01:42:04;16.00;94.90
3017;DHT22;1518;52.408;13.060;2022-11-15T01:44:54;16.00;95.00
3017;DHT22;1518;52.408;13.060;2022-11-15T01:47:46;16.00;94.70
3017;DHT22;1518;52.408;13.060;2022-11-15T01:50:36;16.00;94.90
3017;DHT22;1518;52.408;13.060;2022-11-15T01:53:25;16.00;95.20
3017;DHT22;1518;52.408;13.060;2022-11-15T01:56:16;16.00;95.10
3017;DHT22;1518;52.408;13.060;2022-11-15T01:59:07;16.00;95.10
3017;DHT22;1518;52.408;13.060;2022-11-15T02:01:56;15.90;95.00
3017;DHT22;1518;52.408;13.060;2022-11-15T02:04:46;16.10;94.90
3017;DHT22;1518;52.408;13.060;2022-11-15T02:07:35;16.00;94.90
3017;DHT22;1518;52.408;13.060;2022-11-15T02:10:24;16.00;95.10
3017;DHT22;1518;52.408;13.060;2022-11-15T02:13:13;16.00;95.10
3017;DHT22;1518;52.408;13.060;2022-11-15T02:16:11;16.00;94.90
3017;DHT22;1518;52.408;13.060;2022-11-15T02:19:13;16.00;95.00
3017;DHT22;1518;52.408;13.060;2022-11-15T02:22:14;16.00;95.00
3017;DHT22;1518;52.408;13.060;2022-11-15T02:25:22;15.90;95.00
3017;DHT22;1518;52.408;13.060;2022-11-15T02:28:30;16.00;95.10
3017;DHT22;1518;52.408;13.060;2022-11-15T02:31:28;15.90;94.90
3017;DHT22;1518;52.408;13.060;2022-11-15T02:34:28;16.00;94.70
3017;DHT22;1518;52.408;13.060;2022-11-15T02:37:25;15.90;95.00
3017;DHT22;1518;52.408;13.060;2022-11-15T02:40:26;16.00;95.10
3017;DHT22;1518;52.408;13.060;2022-11-15T02:43:21;15.90;94.70
3017;DHT22;1518;52.408;13.060;2022-11-15T02:46:33;15.90;94.90
3017;DHT22;1518;52.408;13.060;2022-11-15T02:49:42;15.90;94.80
3017;DHT22;1518;52.408;13.060;2022-11-15T02:52:31;15.90;95.00
3017;DHT22;1518;52.408;13.060;2022-11-15T02:55:28;15.90;94.70
3017;DHT22;1518;52.408;13.060;2022-11-15T02:58:50;15.90;94.90
3017;DHT22;1518;52.408;13.060;2022-11-15T03:01:51;15.90;94.90
3017;DHT22;1518;52.408;13.060;2022-11-15T03:04:45;15.90;94.90
3017;DHT22;1518;52.408;13.060;2022-11-15T03:07:46;15.90;97.30
3017;DHT22;1518;52.408;13.060;2022-11-15T03:10:44;15.90;94.90
3017;DHT22;1518;52.408;13.060;2022-11-15T03:13:37;15.80;94.90
3017;DHT22;1518;52.408;13.060;2022-11-15T03:16:31;15.80;94.90
3017;DHT22;1518;52.408;13.060;2022-11-15T03:19:30;15.90;94.90
3017;DHT22;1518;52.408;13.060;2022-11-15T03:22:23;15.90;95.00
3017;DHT22;1518;52.408;13.060;2022-11-15T03:25:17;15.80;94.80
3017;DHT22;1518;52.408;13.060;2022-11-15T03:28:10;15.80;94.90
3017;DHT22;1518;52.408;13.060;2022-11-15T03:31:00;15.90;94.80
3017;DHT22;1518;52.408;13.060;2022-11-15T03:34:13;15.80;94.80
3017;DHT22;1518;52.408;13.060;2022-11-15T03:37:05;15.80;94.70
3017;DHT22;1518;52.408;13.060;2022-11-15T03:39:53;15.80;94.80
3017;DHT22;1518;52.408;13.060;2022-11-15T03:42:46;15.70;94.90
3017;DHT22;1518;52.408;13.060;2022-11-15T03:45:40;15.80;94.80
3017;DHT22;1518;52.408;13.060;2022-11-15T03:48:34;15.90;94.70
3017;DHT22;1518;52.408;13.060;2022-11-15T03:51:23;15.80;94.70
3017;DHT22;1518;52.408;13.060;2022-11-15T03:54:13;15.80;95.30
3017;DHT22;1518;52.408;13.060;2022-11-15T03:57:01;15.80;94.80
3017;DHT22;1518;52.408;13.060;2022-11-15T03:59:49;15.80;94.70
3017;DHT22;1518;52.408;13.060;2022-11-15T04:02:37;15.80;94.80
3017;DHT22;1518;52.408;13.060;2022-11-15T04:05:26;15.80;94.70
3017;DHT22;1518;52.408;13.060;2022-11-15T04:08:14;15.80;94.70
3017;DHT22;1518;52.408;13.060;2022-11-15T04:11:03;15.80;94.80
3017;DHT22;1518;52.408;13.060;2022-11-15T04:13:51;15.80;94.70
3017;DHT22;1518;52.408;13.060;2022-11-15T04:16:39;15.80;94.80
3017;DHT22;1518;52.408;13.060;2022-11-15T04:19:30;15.80;94.90
3017;DHT22;1518;52.408;13.060;2022-11-15T04:22:35;15.80;94.80
3017;DHT22;1518;52.408;13.060;2022-11-15T04:25:41;15.70;94.80
3017;DHT22;1518;52.408;13.060;2022-11-15T04:28:31;15.80;94.80
3017;DHT22;1518;52.408;13.060;2022-11-15T04:31:19;15.80;94.90
3017;DHT22;1518;52.408;13.060;2022-11-15T04:34:07;15.70;94.70
3017;DHT22;1518;52.408;13.060;2022-11-15T04:36:55;15.70;94.90
3017;DHT22;1518;52.408;13.060;2022-11-15T04:40:03;15.70;94.60
3017;DHT22;1518;52.408;13.060;2022-11-15T04:42:51;15.70;94.90
3017;DHT22;1518;52.408;13.060;2022-11-15T04:45:41;15.70;94.80
3017;DHT22;1518;52.408;13.060;2022-11-15T04:48:29;15.70;94.90
3017;DHT22;1518;52.408;13.060;2022-11-15T04:51:17;15.40;94.60
3017;DHT22;1518;52.408;13.060;2022-11-15T04:54:05;15.80;94.90
3017;DHT22;1518;52.408;13.060;2022-11-15T04:56:53;15.70;95.00
3017;DHT22;1518;52.408;13.060;2022-11-15T04:59:41;15.70;94.80
3017;DHT22;1518;52.408;13.060;2022-11-15T05:02:30;15.70;94.80
3017;DHT22;1518;52.408;13.060;2022-11-15T05:05:32;15.70;94.90
3017;DHT22;1518;52.408;13.060;2022-11-15T05:08:21;15.70;94.80
3017;DHT22;1518;52.408;13.060;2022-11-15T05:11:09;15.70;94.90
3017;DHT22;1518;52.408;13.060;2022-11-15T05:13:57;15.70;94.90
3017;DHT22;1518;52.408;13.060;2022-11-15T05:16:45;15.70;94.90
3017;DHT22;1518;52.408;13.060;2022-11-15T05:19:34;15.70;94.70
3017;DHT22;1518;52.408;13.060;2022-11-15T05:22:22;15.80;94.90
3017;DHT22;1518;52.408;13.060;2022-11-15T05:25:10;15.70;94.80
3017;DHT22;1518;52.408;13.060;2022-11-15T05:27:58;15.70;94.90
3017;DHT22;1518;52.408;13.060;2022-11-15T05:30:46;15.70;94.80
3017;DHT22;1518;52.408;13.060;2022-11-15T05:33:35;15.60;94.80
3017;DHT22;1518;52.408;13.060;2022-11-15T05:36:31;15.70;94.80
3017;DHT22;1518;52.408;13.060;2022-11-15T05:39:19;15.70;94.80
3017;DHT22;1518;52.408;13.060;2022-11-15T05:42:09;15.80;95.10
3017;DHT22;1518;52.408;13.060;2022-11-15T05:44:58;15.70;94.70
3017;DHT22;1518;52.408;13.060;2022-11-15T05:47:48;15.70;94.80
3017;DHT22;1518;52.408;13.060;2022-11-15T05:50:38;15.70;94.70
3017;DHT22;1518;52.408;13.060;2022-11-15T05:53:28;15.70;94.90
3017;DHT22;1518;52.408;13.060;2022-11-15T05:56:17;15.70;94.80
3017;DHT22;1518;52.408;13.060;2022-11-15T05:59:07;15.60;94.80
3017;DHT22;1518;52.408;13.060;2022-11-15T06:01:56;15.70;94.90
3017;DHT22;1518;52.408;13.060;2022-11-15T06:04:44;15.70;94.90
3017;DHT22;1518;52.408;13.060;2022-11-15T06:07:32;15.70;95.10
3017;DHT22;1518;52.408;13.060;2022-11-15T06:10:21;15.60;94.70
3017;DHT22;1518;52.408;13.060;2022-11-15T06:13:09;15.60;94.70
3017;DHT22;1518;52.408;13.060;2022-11-15T06:15:57;15.70;94.90
3017;DHT22;1518;52.408;13.060;2022-11-15T06:18:45;15.60;94.70
3017;DHT22;1518;52.408;13.060;2022-11-15T06:21:33;15.60;94.70
3017;DHT22;1518;52.408;13.060;2022-11-15T06:24:21;15.60;94.70
3017;DHT22;1518;52.408;13.060;2022-11-15T06:27:11;15.60;94.70
3017;DHT22;1518;52.408;13.060;2022-11-15T06:29:59;15.60;94.70
3017;DHT22;1518;52.408;13.060;2022-11-15T06:32:48;15.70;94.90
3017;DHT22;1518;52.408;13.060;2022-11-15T06:35:36;15.60;94.80
3017;DHT22;1518;52.408;13.060;2022-11-15T06:38:24;15.70;94.80
3017;DHT22;1518;52.408;13.060;2022-11-15T06:41:13;15.60;95.00
3017;DHT22;1518;52.408;13.060;2022-11-15T06:44:03;15.60;95.00
3017;DHT22;1518;52.408;13.060;2022-11-15T06:46:51;15.60;95.30
3017;DHT22;1518;52.408;13.060;2022-11-15T06:49:39;15.70;95.30
3017;DHT22;1518;52.408;13.060;2022-11-15T06:52:27;15.70;95.30
3017;DHT22;1518;52.408;13.060;2022-11-15T06:55:19;15.70;95.30
3017;DHT22;1518;52.408;13.060;2022-11-15T06:58:07;15.70;95.20
3017;DHT22;1518;52.408;13.060;2022-11-15T07:00:59;15.80;95.00
3017;DHT22;1518;52.408;13.060;2022-11-15T07:03:48;15.60;94.70
3017;DHT22;1518;52.408;13.060;2022-11-15T07:06:36;15.60;94.50
3017;DHT22;1518;52.408;13.060;2022-11-15T07:09:24;15.60;94.50
3017;DHT22;1518;52.408;13.060;2022-11-15T07:12:13;15.60;94.50
3017;DHT22;1518;52.408;13.060;2022-11-15T07:15:01;15.60;94.30
3017;DHT22;1518;52.408;13.060;2022-11-15T07:17:50;15.60;94.40
3017;DHT22;1518;52.408;13.060;2022-11-15T07:20:38;15.70;94.50
3017;DHT22;1518;52.408;13.060;2022-11-15T07:23:27;15.80;94.60
3017;DHT22;1518;52.408;13.060;2022-11-15T07:26:15;15.70;94.40
3017;DHT22;1518;52.408;13.060;2022-11-15T07:29:04;15.70;94.50
3017;DHT22;1518;52.408;13.060;2022-11-15T07:31:52;15.80;94.70
3017;DHT22;1518;52.408;13.060;2022-11-15T07:34:41;15.70;94.60
3017;DHT22;1518;52.408;13.060;2022-11-15T07:37:29;15.70;94.50
3017;DHT22;1518;52.408;13.060;2022-11-15T07:40:17;15.70;94.50
3017;DHT22;1518;52.408;13.060;2022-11-15T07:43:06;15.70;94.70
3017;DHT22;1518;52.408;13.060;2022-11-15T07:45:55;15.80;94.80
3017;DHT22;1518;52.408;13.060;2022-11-15T07:48:45;15.80;94.70
3017;DHT22;1518;52.408;13.060;2022-11-15T07:51:35;15.80;94.80
3017;DHT22;1518;52.408;13.060;2022-11-15T07:54:23;15.90;94.90
3017;DHT22;1518;52.408;13.060;2022-11-15T07:57:11;15.80;94.70
3017;DHT22;1518;52.408;13.060;2022-11-15T07:59:59;15.80;94.80
3017;DHT22;1518;52.408;13.060;2022-11-15T08:02:47;15.80;94.80
3017;DHT22;1518;52.408;13.060;2022-11-15T08:05:36;15.80;94.80
3017;DHT22;1518;52.408;13.060;2022-11-15T08:08:26;15.80;94.80
3017;DHT22;1518;52.408;13.060;2022-11-15T08:11:14;15.80;94.90
3017;DHT22;1518;52.408;13.060;2022-11-15T08:14:02;15.80;94.70
3017;DHT22;1518;52.408;13.060;2022-11-15T08:16:50;15.80;95.00
3017;DHT22;1518;52.408;13.060;2022-11-15T08:19:39;15.80;94.90
3017;DHT22;1518;52.408;13.060;2022-11-15T08:22:27;15.80;94.80
3017;DHT22;1518;52.408;13.060;2022-11-15T08:25:17;15.80;95.00
3017;DHT22;1518;52.408;13.060;2022-11-15T08:28:06;15.80;94.90
3017;DHT22;1518;52.408;13.060;2022-11-15T08:30:54;15.80;95.00
3017;DHT22;1518;52.408;13.060;2022-11-15T08:33:43;15.80;95.00
3017;DHT22;1518;52.408;13.060;2022-11-15T08:36:32;15.80;95.00
3017;DHT22;1518;52.408;13.060;2022-11-15T08:39:30;15.80;95.10
3017;DHT22;1518;52.408;13.060;2022-11-15T08:42:20;15.80;95.10
3017;DHT22;1518;52.408;13.060;2022-11-15T08:45:09;15.80;95.00
3017;DHT22;1518;52.408;13.060;2022-11-15T08:47:57;15.80;95.10
3017;DHT22;1518;52.408;13.060;2022-11-15T08:50:45;15.80;95.10
3017;DHT22;1518;52.408;13.060;2022-11-15T08:53:34;15.80;95.10
3017;DHT22;1518;52.408;13.060;2022-11-15T08:56:22;15.80;95.10
3017;DHT22;1518;52.408;13.060;2022-11-15T08:59:11;15.80;95.10
3017;DHT22;1518;52.408;13.060;2022-11-15T09:01:59;15.90;95.20
3017;DHT22;1518;52.408;13.060;2022-11-15T09:04:47;15.80;95.30
3017;DHT22;1518;52.408;13.060;2022-11-15T09:07:35;15.90;95.40
3017;DHT22;1518;52.408;13.060;2022-11-15T09:10:24;15.90;95.40
3017;DHT22;1518;52.408;13.060;2022-11-15T09:13:12;15.90;95.30
3017;DHT22;1518;52.408;13.060;2022-11-15T09:16:02;15.90;95.40
3017;DHT22;1518;52.408;13.060;2022-11-15T09:18:50;15.90;95.40
3017;DHT22;1518;52.408;13.060;2022-11-15T09:21:38;15.90;95.50
3017;DHT22;1518;52.408;13.060;2022-11-15T09:24:26;15.90;95.50
3017;DHT22;1518;52.408;13.060;2022-11-15T09:27:14;15.90;95.50
3017;DHT22;1518;52.408;13.060;2022-11-15T09:30:03;16.00;95.60
3017;DHT22;1518;52.408;13.060;2022-11-15T09:32:52;16.00;96.00
3017;DHT22;1518;52.408;13.060;2022-11-15T09:35:40;16.00;95.60
3017;DHT22;1518;52.408;13.060;2022-11-15T09:38:28;16.10;95.70
3017;DHT22;1518;52.408;13.060;2022-11-15T09:41:42;16.00;95.70
3017;DHT22;1518;52.408;13.060;2022-11-15T09:44:42;16.00;95.70
3017;DHT22;1518;52.408;13.060;2022-11-15T09:48:03;16.10;95.80
3017;DHT22;1518;52.408;13.060;2022-11-15T09:50:56;16.10;95.80
3017;DHT22;1518;52.408;13.060;2022-11-15T09:53:49;16.10;95.80
3017;DHT22;1518;52.408;13.060;2022-11-15T09:57:04;16.10;95.80
3017;DHT22;1518;52.408;13.060;2022-11-15T10:00:09;16.10;95.80
3017;DHT22;1518;52.408;13.060;2022-11-15T10:03:26;16.10;95.80
3017;DHT22;1518;52.408;13.060;2022-11-15T10:06:25;16.10;95.80
3017;DHT22;1518;52.408;13.060;2022-11-15T10:09:16;16.10;95.90
3017;DHT22;1518;52.408;13.060;2022-11-15T10:12:10;16.10;95.90
3017;DHT22;1518;52.408;13.060;2022-11-15T10:15:02;16.10;95.90
3017;DHT22;1518;52.408;13.060;2022-11-15T10:18:14;16.10;95.90
3017;DHT22;1518;52.408;13.060;2022-11-15T10:21:15;16.10;95.90
3017;DHT22;1518;52.408;13.060;2022-11-15T10:24:10;16.10;95.90
3017;DHT22;1518;52.408;13.060;2022-11-15T10:27:00;16.10;96.00
3017;DHT22;1518;52.408;13.060;2022-11-15T10:29:49;16.10;96.00
3017;DHT22;1518;52.408;13.060;2022-11-15T10:32:37;16.10;96.00
3017;DHT22;1518;52.408;13.060;2022-11-15T10:35:29;16.20;96.10
3017;DHT22;1518;52.408;13.060;2022-11-15T10:38:18;16.20;96.10
3017;DHT22;1518;52.408;13.060;2022-11-15T10:41:07;16.20;96.10
3017;DHT22;1518;52.408;13.060;2022-11-15T10:44:12;16.20;96.10
3017;DHT22;1518;52.408;13.060;2022-11-15T10:50:28;16.20;96.10
3017;DHT22;1518;52.408;13.060;2022-11-15T10:53:26;16.20;96.20
3017;DHT22;1518;52.408;13.060;2022-11-15T10:56:21;16.20;96.20
3017;DHT22;1518;52.408;13.060;2022-11-15T10:59:16;16.20;96.20
3017;DHT22;1518;52.408;13.060;2022-11-15T11:02:24;16.30;96.30
3017;DHT22;1518;52.408;13.060;2022-11-15T11:05:26;16.30;96.30
3017;DHT22;1518;52.408;13.060;2022-11-15T11:08:24;16.30;96.10
3017;DHT22;1518;52.408;13.060;2022-11-15T11:11:12;16.30;96.30
3017;DHT22;1518;52.408;13.060;2022-11-15T11:14:11;16.30;96.30
3017;DHT22;1518;52.408;13.060;2022-11-15T11:17:04;16.30;96.30
3017;DHT22;1518;52.408;13.060;2022-11-15T11:20:00;16.30;96.30
3017;DHT22;1518;52.408;13.060;2022-11-15T11:23:03;16.30;96.30
3017;DHT22;1518;52.408;13.060;2022-11-15T11:26:05;16.30;96.30
3017;DHT22;1518;52.408;13.060;2022-11-15T11:29:13;16.40;96.40
3017;DHT22;1518;52.408;13.060;2022-11-15T11:35:20;16.40;96.50
3017;DHT22;1518;52.408;13.060;2022-11-15T11:38:23;16.40;98.60
3017;DHT22;1518;52.408;13.060;2022-11-15T11:41:22;16.40;96.50
3017;DHT22;1518;52.408;13.060;2022-11-15T11:44:24;16.40;96.50
3017;DHT22;1518;52.408;13.060;2022-11-15T11:47:21;16.40;96.50
3017;DHT22;1518;52.408;13.060;2022-11-15T11:50:13;16.40;96.20
3017;DHT22;1518;52.408;13.060;2022-11-15T11:53:09;16.40;96.50
3017;DHT22;1518;52.408;13.060;2022-11-15T11:56:03;16.40;96.50
3017;DHT22;1518;52.408;13.060;2022-11-15T11:58:55;16.40;96.50
3017;DHT22;1518;52.408;13.060;2022-11-15T12:01:45;16.50;96.50
3017;DHT22;1518;52.408;13.060;2022-11-15T12:04:38;16.50;96.50
3017;DHT22;1518;52.408;13.060;2022-11-15T12:07:31;16.40;96.60
3017;DHT22;1518;52.408;13.060;2022-11-15T12:10:23;16.40;96.50
3017;DHT22;1518;52.408;13.060;2022-11-15T12:13:16;16.50;96.60
3017;DHT22;1518;52.408;13.060;2022-11-15T12:16:12;16.50;96.60
3017;DHT22;1518;52.408;13.060;2022-11-15T12:19:03;16.50;96.60
3017;DHT22;1518;52.408;13.060;2022-11-15T12:21:55;16.50;96.60
3017;DHT22;1518;52.408;13.060;2022-11-15T12:24:50;16.50;96.60
3017;DHT22;1518;52.408;13.060;2022-11-15T12:27:44;16.50;96.60
3017;DHT22;1518;52.408;13.060;2022-11-15T12:30:43;16.50;96.70
3017;DHT22;1518;52.408;13.060;2022-11-15T12:33:36;16.50;96.70
3017;DHT22;1518;52.408;13.060;2022-11-15T12:36:35;16.50;96.70
3017;DHT22;1518;52.408;13.060;2022-11-15T12:46:20;16.50;97.00
3017;DHT22;1518;52.408;13.060;2022-11-15T12:49:41;16.50;96.70
3017;DHT22;1518;52.408;13.060;2022-11-15T12:52:29;16.50;96.80
3017;DHT22;1518;52.408;13.060;2022-11-15T12:55:32;16.60;96.80
3017;DHT22;1518;52.408;13.060;2022-11-15T12:58:28;16.60;96.80
3017;DHT22;1518;52.408;13.060;2022-11-15T13:01:57;16.60;96.80
3017;DHT22;1518;52.408;13.060;2022-11-15T13:04:47;16.60;96.80
3017;DHT22;1518;52.408;13.060;2022-11-15T13:07:57;16.60;96.80
3017;DHT22;1518;52.408;13.060;2022-11-15T13:10:47;16.60;96.80
3017;DHT22;1518;52.408;13.060;2022-11-15T13:13:43;16.60;96.80
3017;DHT22;1518;52.408;13.060;2022-11-15T13:16:32;16.70;96.80
3017;DHT22;1518;52.408;13.060;2022-11-15T13:19:22;16.70;96.80
3017;DHT22;1518;52.408;13.060;2022-11-15T13:22:12;16.60;96.80
3017;DHT22;1518;52.408;13.060;2022-11-15T13:25:25;16.70;96.80
3017;DHT22;1518;52.408;13.060;2022-11-15T13:28:22;16.70;96.80
3017;DHT22;1518;52.408;13.060;2022-11-15T13:31:21;16.70;96.80
3017;DHT22;1518;52.408;13.060;2022-11-15T13:34:27;16.70;96.80
3017;DHT22;1518;52.408;13.060;2022-11-15T13:37:37;16.70;96.80
3017;DHT22;1518;52.408;13.060;2022-11-15T13:40:27;16.70;96.80
3017;DHT22;1518;52.408;13.060;2022-11-15T13:43:26;16.70;96.80
3017;DHT22;1518;52.408;13.060;2022-11-15T13:46:17;16.80;97.20
3017;DHT22;1518;52.408;13.060;2022-11-15T13:49:08;16.70;96.80
3017;DHT22;1518;52.408;13.060;2022-11-15T13:51:59;16.70;96.90
3017;DHT22;1518;52.408;13.060;2022-11-15T13:54:54;16.70;96.80
3017;DHT22;1518;52.408;13.060;2022-11-15T13:57:46;16.70;96.90
3017;DHT22;1518;52.408;13.060;2022-11-15T14:00:37;16.70;96.90
3017;DHT22;1518;52.408;13.060;2022-11-15T14:03:29;16.70;96.90
3017;DHT22;1518;52.408;13.060;2022-11-15T14:06:19;16.70;96.90
3017;DHT22;1518;52.408;13.060;2022-11-15T14:09:29;16.70;96.90
3017;DHT22;1518;52.408;13.060;2022-11-15T14:12:26;16.70;96.90
3017;DHT22;1518;52.408;13.060;2022-11-15T14:15:28;16.70;97.00
3017;DHT22;1518;52.408;13.060;2022-11-15T14:18:41;16.70;96.80
3017;DHT22;1518;52.408;13.060;2022-11-15T14:21:30;16.70;97.00
3017;DHT22;1518;52.408;13.060;2022-11-15T14:24:20;16.70;97.00
3017;DHT22;1518;52.408;13.060;2022-11-15T14:27:20;16.70;97.00
3017;DHT22;1518;52.408;13.060;2022-11-15T14:30:15;16.70;97.10
3017;DHT22;1518;52.408;13.060;2022-11-15T14:33:19;16.70;97.10
3017;DHT22;1518;52.408;13.060;2022-11-15T14:36:12;16.70;97.20
3017;DHT22;1518;52.408;13.060;2022-11-15T14:39:00;16.70;97.20
3017;DHT22;1518;52.408;13.060;2022-11-15T14:41:52;16.70;97.20
3017;DHT22;1518;52.408;13.060;2022-11-15T14:44:40;16.70;97.30
3017;DHT22;1518;52.408;13.060;2022-11-15T14:47:33;16.70;97.40
3017;DHT22;1518;52.408;13.060;2022-11-15T14:50:22;16.70;97.50
3017;DHT22;1518;52.408;13.060;2022-11-15T14:53:12;16.70;97.60
3017;DHT22;1518;52.408;13.060;2022-11-15T14:56:01;16.70;97.60
3017;DHT22;1518;52.408;13.060;2022-11-15T14:58:49;16.70;97.40
3017;DHT22;1518;52.408;13.060;2022-11-15T15:01:37;16.70;97.60
3017;DHT22;1518;52.408;13.060;2022-11-15T15:04:26;16.70;97.60
3017;DHT22;1518;52.408;13.060;2022-11-15T15:07:15;16.70;97.60
3017;DHT22;1518;52.408;13.060;2022-11-15T15:10:04;16.70;97.60
3017;DHT22;1518;52.408;13.060;2022-11-15T15:13:16;16.80;97.60
3017;DHT22;1518;52.408;13.060;2022-11-15T15:16:05;16.70;97.50
3017;DHT22;1518;52.408;13.060;2022-11-15T15:18:54;16.70;97.50
3017;DHT22;1518;52.408;13.060;2022-11-15T15:21:43;16.70;97.50
3017;DHT22;1518;52.408;13.060;2022-11-15T15:24:31;16.70;97.50
3017;DHT22;1518;52.408;13.060;2022-11-15T15:27:19;16.70;97.50
3017;DHT22;1518;52.408;13.060;2022-11-15T15:30:09;16.70;97.50
3017;DHT22;1518;52.408;13.060;2022-11-15T15:32:57;16.70;97.50
3017;DHT22;1518;52.408;13.060;2022-11-15T15:35:45;16.70;97.50
3017;DHT22;1518;52.408;13.060;2022-11-15T15:38:35;16.70;97.50
3017;DHT22;1518;52.408;13.060;2022-11-15T15:41:23;16.70;97.60
3017;DHT22;1518;52.408;13.060;2022-11-15T15:44:12;16.70;97.50
3017;DHT22;1518;52.408;13.060;2022-11-15T15:47:00;16.60;97.50
3017;DHT22;1518;52.408;13.060;2022-11-15T15:49:49;16.60;97.50
3017;DHT22;1518;52.408;13.060;2022-11-15T15:52:37;16.60;97.50
3017;DHT22;1518;52.408;13.060;2022-11-15T15:55:28;16.60;97.50
3017;DHT22;1518;52.408;13.060;2022-11-15T15:58:16;16.60;97.30
3017;DHT22;1518;52.408;13.060;2022-11-15T16:01:04;16.60;97.50
3017;DHT22;1518;52.408;13.060;2022-11-15T16:03:52;16.60;97.50
3017;DHT22;1518;52.408;13.060;2022-11-15T16:06:41;16.60;97.60
3017;DHT22;1518;52.408;13.060;2022-11-15T16:09:31;16.60;97.60
3017;DHT22;1518;52.408;13.060;2022-11-15T16:12:38;16.60;97.60
3017;DHT22;1518;52.408;13.060;2022-11-15T16:15:29;16.60;97.60
3017;DHT22;1518;52.408;13.060;2022-11-15T16:18:18;16.50;99.90
3017;DHT22;1518;52.408;13.060;2022-11-15T16:21:07;16.60;97.60
3017;DHT22;1518;52.408;13.060;2022-11-15T16:23:56;16.50;97.60
3017;DHT22;1518;52.408;13.060;2022-11-15T16:26:44;16.60;97.70
3017;DHT22;1518;52.408;13.060;2022-11-15T16:29:34;16.60;97.60
3017;DHT22;1518;52.408;13.060;2022-11-15T16:32:22;16.50;97.60
3017;DHT22;1518;52.408;13.060;2022-11-15T16:35:11;16.50;97.60
3017;DHT22;1518;52.408;13.060;2022-11-15T16:37:59;16.50;97.60
3017;DHT22;1518;52.408;13.060;2022-11-15T16:40:47;16.50;97.40
3017;DHT22;1518;52.408;13.060;2022-11-15T16:43:36;16.50;97.70
3017;DHT22;1518;52.408;13.060;2022-11-15T16:46:26;16.50;97.70
3017;DHT22;1518;52.408;13.060;2022-11-15T16:49:15;16.40;99.80
3017;DHT22;1518;52.408;13.060;2022-11-15T16:52:03;16.50;97.90
3017;DHT22;1518;52.408;13.060;2022-11-15T16:54:52;16.50;97.90
3017;DHT22;1518;52.408;13.060;2022-11-15T16:57:40;16.50;98.00
3017;DHT22;1518;52.408;13.060;2022-11-15T17:00:28;16.50;97.90
3017;DHT22;1518;52.408;13.060;2022-11-15T17:03:17;16.50;97.90
3017;DHT22;1518;52.408;13.060;2022-11-15T17:06:07;16.50;97.90
3017;DHT22;1518;52.408;13.060;2022-11-15T17:08:56;16.50;98.00
3017;DHT22;1518;52.408;13.060;2022-11-15T17:11:44;16.50;98.00
3017;DHT22;1518;52.408;13.060;2022-11-15T17:14:32;16.50;98.00
3017;DHT22;1518;52.408;13.060;2022-11-15T17:17:20;16.50;98.00
3017;DHT22;1518;52.408;13.060;2022-11-15T17:20:13;16.50;98.00
3017;DHT22;1518;52.408;13.060;2022-11-15T17:23:02;16.50;98.00
3017;DHT22;1518;52.408;13.060;2022-11-15T17:25:57;16.50;98.00
3017;DHT22;1518;52.408;13.060;2022-11-15T17:31:54;16.50;97.80
3017;DHT22;1518;52.408;13.060;2022-11-15T17:34:42;16.50;98.00
3017;DHT22;1518;52.408;13.060;2022-11-15T17:37:32;16.50;98.00
3017;DHT22;1518;52.408;13.060;2022-11-15T17:40:20;16.40;98.00
3017;DHT22;1518;52.408;13.060;2022-11-15T17:43:08;16.40;98.00
3017;DHT22;1518;52.408;13.060;2022-11-15T17:45:56;16.40;98.00
3017;DHT22;1518;52.408;13.060;2022-11-15T17:48:44;16.40;98.00
3017;DHT22;1518;52.408;13.060;2022-11-15T17:51:33;16.50;98.10
3017;DHT22;1518;52.408;13.060;2022-11-15T17:54:22;16.40;98.00
3017;DHT22;1518;52.408;13.060;2022-11-15T17:57:10;16.40;98.10
3017;DHT22;1518;52.408;13.060;2022-11-15T17:59:58;16.40;98.10
3017;DHT22;1518;52.408;13.060;2022-11-15T18:02:46;16.40;98.10
3017;DHT22;1518;52.408;13.060;2022-11-15T18:05:34;16.40;98.10
3017;DHT22;1518;52.408;13.060;2022-11-15T18:08:22;16.40;98.10
3017;DHT22;1518;52.408;13.060;2022-11-15T18:11:13;16.30;98.10
3017;DHT22;1518;52.408;13.060;2022-11-15T18:14:03;16.30;98.20
3017;DHT22;1518;52.408;13.060;2022-11-15T18:16:51;16.30;98.10
3017;DHT22;1518;52.408;13.060;2022-11-15T18:19:40;16.30;98.10
3017;DHT22;1518;52.408;13.060;2022-11-15T18:22:28;16.30;98.10
3017;DHT22;1518;52.408;13.060;2022-11-15T18:25:16;16.30;98.10
3017;DHT22;1518;52.408;13.060;2022-11-15T18:28:06;16.30;98.10
3017;DHT22;1518;52.408;13.060;2022-11-15T18:30:54;16.30;98.20
3017;DHT22;1518;52.408;13.060;2022-11-15T18:33:42;16.30;98.20
3017;DHT22;1518;52.408;13.060;2022-11-15T18:36:30;16.30;98.20
3017;DHT22;1518;52.408;13.060;2022-11-15T18:39:19;16.30;98.20